sensor_id;sensor_type;location;lat;lon;timestamp;P1;durP1;ratioP1;P2;durP2;ratioP2
76903;SDS011;65865;51.698;-0.292;2023-05-10T00:00:04;1.13;;;0.28;;
76903;SDS011;65865;51.698;-0.292;2023-05-10T00:02:31;1.67;;;0.20;;
76903;SDS011;65865;51.698;-0.292;2023-05-10T00:05:04;1.15;;;0.30;;
76903;SDS011;65865;51.698;-0.292;2023-05-10T00:07:30;0.85;;;0.30;;
76903;SDS011;65865;51.698;-0.292;2023-05-10T00:09:56;0.65;;;0.30;;
76903;SDS011;65865;51.698;-0.292;2023-05-10T00:12:23;0.50;;;0.28;;
76903;SDS011;65865;51.698;-0.292;2023-05-10T00:14:49;0.75;;;0.40;;
76903;SDS011;65865;51.698;-0.292;2023-05-10T00:17:15;1.35;;;0.20;;
76903;SDS011;65865;51.698;-0.292;2023-05-10T00:19:41;0.82;;;0.20;;
76903;SDS011;65865;51.698;-0.292;2023-05-10T00:22:07;1.55;;;0.30;;
76903;SDS011;65865;51.698;-0.292;2023-05-10T00:24:33;1.48;;;0.30;;
76903;SDS011;65865;51.698;-0.292;2023-05-10T00:26:59;1.10;;;0.28;;
76903;SDS011;65865;51.698;-0.292;2023-05-10T00:29:25;1.00;;;0.20;;
76903;SDS011;65865;51.698;-0.292;2023-05-10T00:31:53;0.60;;;0.20;;
76903;SDS011;65865;51.698;-0.292;2023-05-10T00:34:19;0.70;;;0.35;;
76903;SDS011;65865;51.698;-0.292;2023-05-10T00:36:45;1.10;;;0.32;;
76903;SDS011;65865;51.698;-0.292;2023-05-10T00:39:11;1.27;;;0.28;;
76903;SDS011;65865;51.698;-0.292;2023-05-10T00:41:37;0.52;;;0.15;;
76903;SDS011;65865;51.698;-0.292;2023-05-10T00:44:04;2.08;;;0.30;;
76903;SDS011;65865;51.698;-0.292;2023-05-10T00:46:30;0.82;;;0.30;;
76903;SDS011;65865;51.698;-0.292;2023-05-10T00:48:56;0.98;;;0.30;;
76903;SDS011;65865;51.698;-0.292;2023-05-10T00:51:22;1.52;;;0.30;;
76903;SDS011;65865;51.698;-0.292;2023-05-10T00:53:49;0.88;;;0.28;;
76903;SDS011;65865;51.698;-0.292;2023-05-10T00:56:15;0.93;;;0.30;;
76903;SDS011;65865;51.698;-0.292;2023-05-10T00:58:42;1.50;;;0.28;;
76903;SDS011;65865;51.698;-0.292;2023-05-10T01:01:13;1.02;;;0.30;;
76903;SDS011;65865;51.698;-0.292;2023-05-10T01:03:39;1.17;;;0.10;;
76903;SDS011;65865;51.698;-0.292;2023-05-10T01:06:06;1.63;;;0.25;;
76903;SDS011;65865;51.698;-0.292;2023-05-10T01:08:33;1.58;;;0.22;;
76903;SDS011;65865;51.698;-0.292;2023-05-10T01:10:59;0.80;;;0.20;;
76903;SDS011;65865;51.698;-0.292;2023-05-10T01:13:58;0.82;;;0.30;;
76903;SDS011;65865;51.698;-0.292;2023-05-10T01:16:17;1.33;;;0.30;;
76903;SDS011;65865;51.698;-0.292;2023-05-10T01:18:43;1.00;;;0.20;;
76903;SDS011;65865;51.698;-0.292;2023-05-10T01:26:46;1.30;;;0.40;;
76903;SDS011;65865;51.698;-0.292;2023-05-10T01:29:33;0.82;;;0.30;;
76903;SDS011;65865;51.698;-0.292;2023-05-10T01:34:40;1.25;;;0.40;;
76903;SDS011;65865;51.698;-0.292;2023-05-10T01:37:09;1.48;;;0.30;;
76903;SDS011;65865;51.698;-0.292;2023-05-10T01:39:43;1.27;;;0.20;;
76903;SDS011;65865;51.698;-0.292;2023-05-10T01:42:11;0.90;;;0.40;;
76903;SDS011;65865;51.698;-0.292;2023-05-10T01:44:58;1.23;;;0.30;;
76903;SDS011;65865;51.698;-0.292;2023-05-10T01:47:29;0.70;;;0.30;;
76903;SDS011;65865;51.698;-0.292;2023-05-10T01:49:56;1.58;;;0.50;;
76903;SDS011;65865;51.698;-0.292;2023-05-10T01:52:30;1.05;;;0.20;;
76903;SDS011;65865;51.698;-0.292;2023-05-10T01:55:02;1.70;;;0.32;;
76903;SDS011;65865;51.698;-0.292;2023-05-10T01:57:31;1.50;;;0.30;;
76903;SDS011;65865;51.698;-0.292;2023-05-10T01:59:58;1.33;;;0.40;;
76903;SDS011;65865;51.698;-0.292;2023-05-10T02:02:25;0.65;;;0.30;;
76903;SDS011;65865;51.698;-0.292;2023-05-10T02:04:53;1.00;;;0.28;;
76903;SDS011;65865;51.698;-0.292;2023-05-10T02:07:20;1.52;;;0.25;;
76903;SDS011;65865;51.698;-0.292;2023-05-10T02:09:47;1.35;;;0.32;;
76903;SDS011;65865;51.698;-0.292;2023-05-10T02:12:13;1.80;;;0.30;;
76903;SDS011;65865;51.698;-0.292;2023-05-10T02:14:41;1.38;;;0.30;;
76903;SDS011;65865;51.698;-0.292;2023-05-10T02:17:07;2.47;;;0.38;;
76903;SDS011;65865;51.698;-0.292;2023-05-10T02:19:34;1.15;;;0.43;;
76903;SDS011;65865;51.698;-0.292;2023-05-10T02:22:01;0.98;;;0.25;;
76903;SDS011;65865;51.698;-0.292;2023-05-10T02:24:28;1.33;;;0.30;;
76903;SDS011;65865;51.698;-0.292;2023-05-10T02:26:55;1.33;;;0.30;;
76903;SDS011;65865;51.698;-0.292;2023-05-10T02:29:22;1.13;;;0.30;;
76903;SDS011;65865;51.698;-0.292;2023-05-10T02:31:49;1.95;;;0.50;;
76903;SDS011;65865;51.698;-0.292;2023-05-10T02:34:15;1.33;;;0.25;;
76903;SDS011;65865;51.698;-0.292;2023-05-10T02:36:42;1.23;;;0.30;;
76903;SDS011;65865;51.698;-0.292;2023-05-10T02:39:08;1.50;;;0.30;;
76903;SDS011;65865;51.698;-0.292;2023-05-10T02:41:37;0.80;;;0.30;;
76903;SDS011;65865;51.698;-0.292;2023-05-10T02:44:06;1.75;;;0.40;;
76903;SDS011;65865;51.698;-0.292;2023-05-10T02:46:33;0.85;;;0.38;;
76903;SDS011;65865;51.698;-0.292;2023-05-10T02:48:59;2.40;;;0.40;;
76903;SDS011;65865;51.698;-0.292;2023-05-10T02:51:27;1.00;;;0.30;;
76903;SDS011;65865;51.698;-0.292;2023-05-10T02:53:54;1.23;;;0.30;;
76903;SDS011;65865;51.698;-0.292;2023-05-10T02:56:23;3.55;;;0.50;;
76903;SDS011;65865;51.698;-0.292;2023-05-10T02:58:50;1.60;;;0.40;;
76903;SDS011;65865;51.698;-0.292;2023-05-10T03:01:17;0.80;;;0.40;;
76903;SDS011;65865;51.698;-0.292;2023-05-10T03:03:43;2.15;;;0.38;;
76903;SDS011;65865;51.698;-0.292;2023-05-10T03:06:09;1.77;;;0.30;;
76903;SDS011;65865;51.698;-0.292;2023-05-10T03:08:35;0.93;;;0.30;;
76903;SDS011;65865;51.698;-0.292;2023-05-10T03:13:39;0.82;;;0.17;;
76903;SDS011;65865;51.698;-0.292;2023-05-10T03:16:10;0.85;;;0.20;;
76903;SDS011;65865;51.698;-0.292;2023-05-10T03:18:47;1.08;;;0.40;;
76903;SDS011;65865;51.698;-0.292;2023-05-10T03:21:14;0.60;;;0.38;;
76903;SDS011;65865;51.698;-0.292;2023-05-10T03:23:47;1.17;;;0.40;;
76903;SDS011;65865;51.698;-0.292;2023-05-10T03:26:24;1.17;;;0.30;;
76903;SDS011;65865;51.698;-0.292;2023-05-10T03:28:50;1.70;;;0.43;;
76903;SDS011;65865;51.698;-0.292;2023-05-10T03:31:17;0.93;;;0.40;;
76903;SDS011;65865;51.698;-0.292;2023-05-10T03:33:50;0.98;;;0.30;;
76903;SDS011;65865;51.698;-0.292;2023-05-10T03:36:16;0.75;;;0.32;;
76903;SDS011;65865;51.698;-0.292;2023-05-10T03:38:43;0.85;;;0.40;;
76903;SDS011;65865;51.698;-0.292;2023-05-10T03:41:09;1.42;;;0.35;;
76903;SDS011;65865;51.698;-0.292;2023-05-10T03:43:35;1.15;;;0.30;;
76903;SDS011;65865;51.698;-0.292;2023-05-10T03:46:02;1.60;;;0.22;;
76903;SDS011;65865;51.698;-0.292;2023-05-10T03:48:28;1.02;;;0.40;;
76903;SDS011;65865;51.698;-0.292;2023-05-10T03:50:54;1.15;;;0.30;;
76903;SDS011;65865;51.698;-0.292;2023-05-10T03:53:20;1.58;;;0.40;;
76903;SDS011;65865;51.698;-0.292;2023-05-10T03:55:47;1.70;;;0.30;;
76903;SDS011;65865;51.698;-0.292;2023-05-10T03:58:13;0.60;;;0.28;;
76903;SDS011;65865;51.698;-0.292;2023-05-10T04:00:40;1.35;;;0.30;;
76903;SDS011;65865;51.698;-0.292;2023-05-10T04:03:10;0.50;;;0.20;;
76903;SDS011;65865;51.698;-0.292;2023-05-10T04:05:37;1.55;;;0.40;;
76903;SDS011;65865;51.698;-0.292;2023-05-10T04:08:03;0.70;;;0.28;;
76903;SDS011;65865;51.698;-0.292;2023-05-10T04:10:29;1.00;;;0.30;;
76903;SDS011;65865;51.698;-0.292;2023-05-10T04:12:55;1.77;;;0.40;;
76903;SDS011;65865;51.698;-0.292;2023-05-10T04:15:21;2.30;;;0.30;;
76903;SDS011;65865;51.698;-0.292;2023-05-10T04:17:47;1.42;;;0.40;;
76903;SDS011;65865;51.698;-0.292;2023-05-10T04:20:13;1.73;;;0.30;;
76903;SDS011;65865;51.698;-0.292;2023-05-10T04:22:39;2.03;;;0.50;;
76903;SDS011;65865;51.698;-0.292;2023-05-10T04:25:06;2.55;;;0.43;;
76903;SDS011;65865;51.698;-0.292;2023-05-10T04:27:32;0.95;;;0.30;;
76903;SDS011;65865;51.698;-0.292;2023-05-10T04:29:59;0.60;;;0.30;;
76903;SDS011;65865;51.698;-0.292;2023-05-10T04:32:25;1.25;;;0.30;;
76903;SDS011;65865;51.698;-0.292;2023-05-10T04:34:51;0.85;;;0.30;;
76903;SDS011;65865;51.698;-0.292;2023-05-10T04:40:14;1.33;;;0.30;;
76903;SDS011;65865;51.698;-0.292;2023-05-10T04:42:40;1.63;;;0.30;;
76903;SDS011;65865;51.698;-0.292;2023-05-10T04:45:06;1.35;;;0.30;;
76903;SDS011;65865;51.698;-0.292;2023-05-10T04:47:35;1.15;;;0.30;;
76903;SDS011;65865;51.698;-0.292;2023-05-10T04:50:02;1.27;;;0.40;;
76903;SDS011;65865;51.698;-0.292;2023-05-10T04:52:28;1.95;;;0.45;;
76903;SDS011;65865;51.698;-0.292;2023-05-10T04:54:54;1.65;;;0.35;;
76903;SDS011;65865;51.698;-0.292;2023-05-10T04:57:20;0.57;;;0.28;;
76903;SDS011;65865;51.698;-0.292;2023-05-10T04:59:46;1.05;;;0.40;;
76903;SDS011;65865;51.698;-0.292;2023-05-10T05:02:12;1.70;;;0.38;;
76903;SDS011;65865;51.698;-0.292;2023-05-10T05:04:38;0.75;;;0.30;;
76903;SDS011;65865;51.698;-0.292;2023-05-10T05:07:17;1.88;;;0.40;;
76903;SDS011;65865;51.698;-0.292;2023-05-10T05:09:43;1.02;;;0.38;;
76903;SDS011;65865;51.698;-0.292;2023-05-10T05:12:09;0.40;;;0.30;;
76903;SDS011;65865;51.698;-0.292;2023-05-10T05:14:39;1.75;;;0.43;;
76903;SDS011;65865;51.698;-0.292;2023-05-10T05:17:10;1.75;;;0.40;;
76903;SDS011;65865;51.698;-0.292;2023-05-10T05:19:36;1.70;;;0.40;;
76903;SDS011;65865;51.698;-0.292;2023-05-10T05:22:06;1.30;;;0.45;;
76903;SDS011;65865;51.698;-0.292;2023-05-10T05:24:36;2.10;;;0.30;;
76903;SDS011;65865;51.698;-0.292;2023-05-10T05:27:03;1.45;;;0.52;;
76903;SDS011;65865;51.698;-0.292;2023-05-10T05:29:29;1.10;;;0.30;;
76903;SDS011;65865;51.698;-0.292;2023-05-10T05:31:55;0.85;;;0.30;;
76903;SDS011;65865;51.698;-0.292;2023-05-10T05:34:21;1.13;;;0.35;;
76903;SDS011;65865;51.698;-0.292;2023-05-10T05:36:47;1.30;;;0.50;;
76903;SDS011;65865;51.698;-0.292;2023-05-10T05:39:13;0.93;;;0.35;;
76903;SDS011;65865;51.698;-0.292;2023-05-10T05:41:40;1.42;;;0.40;;
76903;SDS011;65865;51.698;-0.292;2023-05-10T05:44:06;1.25;;;0.50;;
76903;SDS011;65865;51.698;-0.292;2023-05-10T05:46:32;1.63;;;0.50;;
76903;SDS011;65865;51.698;-0.292;2023-05-10T05:48:58;0.85;;;0.30;;
76903;SDS011;65865;51.698;-0.292;2023-05-10T05:51:24;1.33;;;0.40;;
76903;SDS011;65865;51.698;-0.292;2023-05-10T05:53:50;1.33;;;0.40;;
76903;SDS011;65865;51.698;-0.292;2023-05-10T05:56:16;1.88;;;0.40;;
76903;SDS011;65865;51.698;-0.292;2023-05-10T05:58:55;2.25;;;0.40;;
76903;SDS011;65865;51.698;-0.292;2023-05-10T06:01:21;0.50;;;0.20;;
76903;SDS011;65865;51.698;-0.292;2023-05-10T06:03:47;0.82;;;0.30;;
76903;SDS011;65865;51.698;-0.292;2023-05-10T06:06:13;2.45;;;0.47;;
76903;SDS011;65865;51.698;-0.292;2023-05-10T06:08:39;1.83;;;0.30;;
76903;SDS011;65865;51.698;-0.292;2023-05-10T06:11:06;3.58;;;0.57;;
76903;SDS011;65865;51.698;-0.292;2023-05-10T06:13:32;3.25;;;0.63;;
76903;SDS011;65865;51.698;-0.292;2023-05-10T06:16:00;1.30;;;0.52;;
76903;SDS011;65865;51.698;-0.292;2023-05-10T06:18:26;2.03;;;0.52;;
76903;SDS011;65865;51.698;-0.292;2023-05-10T06:20:53;2.33;;;0.55;;
76903;SDS011;65865;51.698;-0.292;2023-05-10T06:23:19;2.92;;;0.63;;
76903;SDS011;65865;51.698;-0.292;2023-05-10T06:25:45;2.67;;;0.52;;
76903;SDS011;65865;51.698;-0.292;2023-05-10T06:28:11;1.92;;;0.55;;
76903;SDS011;65865;51.698;-0.292;2023-05-10T06:30:37;2.67;;;0.60;;
76903;SDS011;65865;51.698;-0.292;2023-05-10T06:33:04;2.97;;;0.70;;
76903;SDS011;65865;51.698;-0.292;2023-05-10T06:35:30;3.63;;;0.88;;
76903;SDS011;65865;51.698;-0.292;2023-05-10T06:37:58;2.83;;;0.85;;
76903;SDS011;65865;51.698;-0.292;2023-05-10T06:40:24;2.58;;;0.88;;
76903;SDS011;65865;51.698;-0.292;2023-05-10T06:42:50;2.90;;;0.70;;
76903;SDS011;65865;51.698;-0.292;2023-05-10T06:45:16;3.15;;;1.10;;
76903;SDS011;65865;51.698;-0.292;2023-05-10T06:47:42;3.20;;;0.90;;
76903;SDS011;65865;51.698;-0.292;2023-05-10T06:50:09;2.35;;;0.90;;
76903;SDS011;65865;51.698;-0.292;2023-05-10T06:52:36;4.40;;;0.80;;
76903;SDS011;65865;51.698;-0.292;2023-05-10T06:55:03;3.53;;;0.80;;
76903;SDS011;65865;51.698;-0.292;2023-05-10T06:57:29;2.25;;;0.90;;
76903;SDS011;65865;51.698;-0.292;2023-05-10T06:59:55;2.92;;;0.70;;
76903;SDS011;65865;51.698;-0.292;2023-05-10T07:02:21;2.65;;;0.95;;
76903;SDS011;65865;51.698;-0.292;2023-05-10T07:04:47;2.55;;;0.70;;
76903;SDS011;65865;51.698;-0.292;2023-05-10T07:07:14;2.53;;;0.70;;
76903;SDS011;65865;51.698;-0.292;2023-05-10T07:09:40;3.40;;;0.65;;
76903;SDS011;65865;51.698;-0.292;2023-05-10T07:12:07;3.33;;;0.93;;
76903;SDS011;65865;51.698;-0.292;2023-05-10T07:14:33;2.67;;;0.70;;
76903;SDS011;65865;51.698;-0.292;2023-05-10T07:22:11;3.80;;;0.80;;
76903;SDS011;65865;51.698;-0.292;2023-05-10T07:24:37;3.03;;;0.90;;
76903;SDS011;65865;51.698;-0.292;2023-05-10T07:27:04;3.97;;;1.15;;
76903;SDS011;65865;51.698;-0.292;2023-05-10T07:29:30;3.53;;;0.93;;
76903;SDS011;65865;51.698;-0.292;2023-05-10T07:31:56;6.30;;;1.00;;
76903;SDS011;65865;51.698;-0.292;2023-05-10T07:34:22;2.22;;;0.80;;
76903;SDS011;65865;51.698;-0.292;2023-05-10T07:36:48;3.00;;;0.70;;
76903;SDS011;65865;51.698;-0.292;2023-05-10T07:39:14;1.98;;;0.57;;
76903;SDS011;65865;51.698;-0.292;2023-05-10T07:41:42;4.35;;;0.88;;
76903;SDS011;65865;51.698;-0.292;2023-05-10T07:44:08;3.13;;;0.95;;
76903;SDS011;65865;51.698;-0.292;2023-05-10T07:46:34;3.78;;;0.80;;
76903;SDS011;65865;51.698;-0.292;2023-05-10T07:49:00;4.00;;;0.80;;
76903;SDS011;65865;51.698;-0.292;2023-05-10T07:51:26;4.75;;;0.98;;
76903;SDS011;65865;51.698;-0.292;2023-05-10T07:53:53;2.53;;;1.00;;
76903;SDS011;65865;51.698;-0.292;2023-05-10T07:56:26;3.30;;;0.80;;
76903;SDS011;65865;51.698;-0.292;2023-05-10T07:59:00;3.60;;;0.80;;
76903;SDS011;65865;51.698;-0.292;2023-05-10T08:01:29;3.58;;;0.80;;
76903;SDS011;65865;51.698;-0.292;2023-05-10T08:03:56;4.15;;;0.73;;
76903;SDS011;65865;51.698;-0.292;2023-05-10T08:06:22;5.07;;;1.00;;
76903;SDS011;65865;51.698;-0.292;2023-05-10T08:08:48;4.68;;;1.00;;
76903;SDS011;65865;51.698;-0.292;2023-05-10T08:11:16;4.68;;;0.90;;
76903;SDS011;65865;51.698;-0.292;2023-05-10T08:13:42;2.97;;;0.77;;
76903;SDS011;65865;51.698;-0.292;2023-05-10T08:16:08;3.38;;;0.80;;
76903;SDS011;65865;51.698;-0.292;2023-05-10T08:18:34;4.70;;;0.90;;
76903;SDS011;65865;51.698;-0.292;2023-05-10T08:21:00;3.55;;;0.75;;
76903;SDS011;65865;51.698;-0.292;2023-05-10T08:23:26;4.28;;;0.88;;
76903;SDS011;65865;51.698;-0.292;2023-05-10T08:25:52;3.55;;;1.00;;
76903;SDS011;65865;51.698;-0.292;2023-05-10T08:28:18;3.95;;;0.70;;
76903;SDS011;65865;51.698;-0.292;2023-05-10T08:30:44;5.40;;;0.77;;
76903;SDS011;65865;51.698;-0.292;2023-05-10T08:33:10;3.45;;;0.77;;
76903;SDS011;65865;51.698;-0.292;2023-05-10T08:35:36;3.67;;;0.80;;
76903;SDS011;65865;51.698;-0.292;2023-05-10T08:38:02;6.10;;;1.00;;
76903;SDS011;65865;51.698;-0.292;2023-05-10T08:40:28;6.13;;;0.90;;
76903;SDS011;65865;51.698;-0.292;2023-05-10T08:43:05;3.80;;;0.80;;
76903;SDS011;65865;51.698;-0.292;2023-05-10T08:45:38;4.68;;;0.90;;
76903;SDS011;65865;51.698;-0.292;2023-05-10T08:48:06;3.50;;;0.80;;
76903;SDS011;65865;51.698;-0.292;2023-05-10T08:50:33;4.88;;;0.98;;
76903;SDS011;65865;51.698;-0.292;2023-05-10T08:53:03;3.97;;;0.98;;
76903;SDS011;65865;51.698;-0.292;2023-05-10T08:55:29;4.43;;;0.80;;
76903;SDS011;65865;51.698;-0.292;2023-05-10T08:57:55;5.53;;;0.90;;
76903;SDS011;65865;51.698;-0.292;2023-05-10T09:00:22;4.82;;;0.82;;
76903;SDS011;65865;51.698;-0.292;2023-05-10T09:02:49;3.50;;;0.63;;
76903;SDS011;65865;51.698;-0.292;2023-05-10T09:05:15;2.72;;;0.80;;
76903;SDS011;65865;51.698;-0.292;2023-05-10T09:07:42;3.03;;;0.90;;
76903;SDS011;65865;51.698;-0.292;2023-05-10T09:10:08;3.78;;;0.80;;
76903;SDS011;65865;51.698;-0.292;2023-05-10T09:12:36;5.32;;;1.10;;
76903;SDS011;65865;51.698;-0.292;2023-05-10T09:15:05;3.78;;;0.90;;
76903;SDS011;65865;51.698;-0.292;2023-05-10T09:17:31;2.40;;;0.80;;
76903;SDS011;65865;51.698;-0.292;2023-05-10T09:19:59;2.88;;;0.88;;
76903;SDS011;65865;51.698;-0.292;2023-05-10T09:22:25;3.97;;;0.95;;
76903;SDS011;65865;51.698;-0.292;2023-05-10T09:25:04;4.95;;;0.90;;
76903;SDS011;65865;51.698;-0.292;2023-05-10T09:29:59;5.70;;;1.13;;
76903;SDS011;65865;51.698;-0.292;2023-05-10T09:32:39;4.95;;;0.77;;
76903;SDS011;65865;51.698;-0.292;2023-05-10T09:35:07;5.88;;;1.27;;
76903;SDS011;65865;51.698;-0.292;2023-05-10T09:37:34;4.13;;;0.90;;
76903;SDS011;65865;51.698;-0.292;2023-05-10T09:40:00;2.78;;;0.73;;
76903;SDS011;65865;51.698;-0.292;2023-05-10T09:42:26;4.43;;;1.05;;
76903;SDS011;65865;51.698;-0.292;2023-05-10T09:44:52;4.43;;;0.95;;
76903;SDS011;65865;51.698;-0.292;2023-05-10T09:47:18;4.28;;;1.17;;
76903;SDS011;65865;51.698;-0.292;2023-05-10T09:49:48;4.60;;;1.10;;
76903;SDS011;65865;51.698;-0.292;2023-05-10T09:52:15;4.53;;;1.13;;
76903;SDS011;65865;51.698;-0.292;2023-05-10T09:54:44;4.47;;;1.05;;
76903;SDS011;65865;51.698;-0.292;2023-05-10T09:57:20;4.65;;;0.88;;
76903;SDS011;65865;51.698;-0.292;2023-05-10T09:59:46;4.05;;;1.00;;
76903;SDS011;65865;51.698;-0.292;2023-05-10T10:02:13;5.95;;;1.20;;
76903;SDS011;65865;51.698;-0.292;2023-05-10T10:04:39;5.57;;;1.33;;
76903;SDS011;65865;51.698;-0.292;2023-05-10T10:07:05;4.82;;;1.10;;
76903;SDS011;65865;51.698;-0.292;2023-05-10T10:09:32;4.03;;;1.15;;
76903;SDS011;65865;51.698;-0.292;2023-05-10T10:11:58;2.70;;;0.98;;
76903;SDS011;65865;51.698;-0.292;2023-05-10T10:14:25;5.93;;;1.70;;
76903;SDS011;65865;51.698;-0.292;2023-05-10T10:16:51;4.90;;;1.55;;
76903;SDS011;65865;51.698;-0.292;2023-05-10T10:27:26;3.53;;;1.25;;
76903;SDS011;65865;51.698;-0.292;2023-05-10T10:34:58;5.22;;;1.20;;
76903;SDS011;65865;51.698;-0.292;2023-05-10T10:37:40;4.57;;;0.95;;
76903;SDS011;65865;51.698;-0.292;2023-05-10T10:42:51;4.85;;;1.40;;
76903;SDS011;65865;51.698;-0.292;2023-05-10T10:45:18;6.72;;;1.40;;
76903;SDS011;65865;51.698;-0.292;2023-05-10T10:47:44;4.00;;;1.00;;
76903;SDS011;65865;51.698;-0.292;2023-05-10T10:50:10;3.33;;;1.17;;
76903;SDS011;65865;51.698;-0.292;2023-05-10T10:52:41;5.15;;;1.17;;
76903;SDS011;65865;51.698;-0.292;2023-05-10T11:02:45;5.55;;;1.40;;
76903;SDS011;65865;51.698;-0.292;2023-05-10T11:05:23;5.28;;;1.33;;
76903;SDS011;65865;51.698;-0.292;2023-05-10T11:07:56;5.32;;;1.27;;
76903;SDS011;65865;51.698;-0.292;2023-05-10T11:10:26;6.60;;;1.45;;
76903;SDS011;65865;51.698;-0.292;2023-05-10T11:13:03;5.68;;;1.17;;
76903;SDS011;65865;51.698;-0.292;2023-05-10T11:15:34;3.95;;;1.08;;
76903;SDS011;65865;51.698;-0.292;2023-05-10T11:18:16;4.18;;;1.40;;
76903;SDS011;65865;51.698;-0.292;2023-05-10T11:20:43;4.07;;;1.02;;
76903;SDS011;65865;51.698;-0.292;2023-05-10T11:23:13;4.30;;;1.00;;
76903;SDS011;65865;51.698;-0.292;2023-05-10T11:25:41;4.90;;;1.42;;
76903;SDS011;65865;51.698;-0.292;2023-05-10T11:28:11;10.77;;;1.60;;
76903;SDS011;65865;51.698;-0.292;2023-05-10T11:30:38;5.80;;;1.60;;
76903;SDS011;65865;51.698;-0.292;2023-05-10T11:33:05;4.22;;;1.00;;
76903;SDS011;65865;51.698;-0.292;2023-05-10T11:35:32;4.65;;;1.30;;
76903;SDS011;65865;51.698;-0.292;2023-05-10T11:38:04;3.97;;;1.20;;
76903;SDS011;65865;51.698;-0.292;2023-05-10T11:40:30;4.65;;;1.15;;
76903;SDS011;65865;51.698;-0.292;2023-05-10T11:42:56;5.53;;;1.40;;
76903;SDS011;65865;51.698;-0.292;2023-05-10T11:45:23;4.72;;;1.00;;
76903;SDS011;65865;51.698;-0.292;2023-05-10T11:47:49;3.03;;;1.13;;
76903;SDS011;65865;51.698;-0.292;2023-05-10T11:50:16;3.42;;;1.25;;
76903;SDS011;65865;51.698;-0.292;2023-05-10T11:52:42;4.72;;;1.10;;
76903;SDS011;65865;51.698;-0.292;2023-05-10T11:55:09;4.10;;;0.90;;
76903;SDS011;65865;51.698;-0.292;2023-05-10T11:57:35;4.55;;;1.00;;
76903;SDS011;65865;51.698;-0.292;2023-05-10T12:00:04;4.45;;;0.90;;
76903;SDS011;65865;51.698;-0.292;2023-05-10T12:02:31;4.95;;;1.35;;
76903;SDS011;65865;51.698;-0.292;2023-05-10T12:05:03;3.53;;;1.10;;
76903;SDS011;65865;51.698;-0.292;2023-05-10T12:07:30;3.75;;;0.90;;
76903;SDS011;65865;51.698;-0.292;2023-05-10T12:10:06;3.47;;;0.77;;
76903;SDS011;65865;51.698;-0.292;2023-05-10T12:12:39;2.72;;;0.80;;
76903;SDS011;65865;51.698;-0.292;2023-05-10T12:15:10;2.65;;;0.82;;
76903;SDS011;65865;51.698;-0.292;2023-05-10T12:17:37;3.80;;;0.90;;
76903;SDS011;65865;51.698;-0.292;2023-05-10T12:20:13;4.97;;;0.95;;
76903;SDS011;65865;51.698;-0.292;2023-05-10T12:22:40;2.00;;;0.80;;
76903;SDS011;65865;51.698;-0.292;2023-05-10T12:25:07;4.43;;;0.70;;
76903;SDS011;65865;51.698;-0.292;2023-05-10T12:27:34;3.35;;;0.90;;
76903;SDS011;65865;51.698;-0.292;2023-05-10T12:30:01;2.72;;;0.70;;
76903;SDS011;65865;51.698;-0.292;2023-05-10T12:32:40;3.85;;;0.75;;
76903;SDS011;65865;51.698;-0.292;2023-05-10T12:35:06;4.43;;;1.00;;
76903;SDS011;65865;51.698;-0.292;2023-05-10T12:37:33;3.28;;;0.98;;
76903;SDS011;65865;51.698;-0.292;2023-05-10T12:40:04;3.92;;;1.00;;
76903;SDS011;65865;51.698;-0.292;2023-05-10T12:42:30;2.17;;;0.77;;
76903;SDS011;65865;51.698;-0.292;2023-05-10T12:44:57;1.95;;;0.75;;
76903;SDS011;65865;51.698;-0.292;2023-05-10T12:47:23;4.30;;;0.90;;
76903;SDS011;65865;51.698;-0.292;2023-05-10T12:49:49;2.28;;;0.80;;
76903;SDS011;65865;51.698;-0.292;2023-05-10T12:52:16;2.47;;;0.85;;
76903;SDS011;65865;51.698;-0.292;2023-05-10T12:54:42;1.95;;;0.60;;
76903;SDS011;65865;51.698;-0.292;2023-05-10T12:57:08;2.20;;;0.80;;
76903;SDS011;65865;51.698;-0.292;2023-05-10T12:59:34;3.30;;;0.85;;
76903;SDS011;65865;51.698;-0.292;2023-05-10T13:02:00;2.80;;;0.65;;
76903;SDS011;65865;51.698;-0.292;2023-05-10T13:04:26;3.85;;;0.90;;
76903;SDS011;65865;51.698;-0.292;2023-05-10T13:06:52;3.03;;;0.70;;
76903;SDS011;65865;51.698;-0.292;2023-05-10T13:09:20;3.83;;;1.05;;
76903;SDS011;65865;51.698;-0.292;2023-05-10T13:11:46;2.53;;;0.80;;
76903;SDS011;65865;51.698;-0.292;2023-05-10T13:14:13;4.55;;;0.80;;
76903;SDS011;65865;51.698;-0.292;2023-05-10T13:16:39;2.60;;;0.77;;
76903;SDS011;65865;51.698;-0.292;2023-05-10T13:19:05;2.78;;;0.90;;
76903;SDS011;65865;51.698;-0.292;2023-05-10T13:21:31;2.58;;;0.70;;
76903;SDS011;65865;51.698;-0.292;2023-05-10T13:23:57;2.38;;;0.73;;
76903;SDS011;65865;51.698;-0.292;2023-05-10T13:26:24;2.10;;;0.70;;
76903;SDS011;65865;51.698;-0.292;2023-05-10T13:28:51;3.17;;;0.90;;
76903;SDS011;65865;51.698;-0.292;2023-05-10T13:31:17;2.33;;;0.77;;
76903;SDS011;65865;51.698;-0.292;2023-05-10T13:33:43;2.97;;;1.00;;
76903;SDS011;65865;51.698;-0.292;2023-05-10T13:36:09;2.40;;;0.65;;
76903;SDS011;65865;51.698;-0.292;2023-05-10T13:38:38;3.42;;;0.93;;
76903;SDS011;65865;51.698;-0.292;2023-05-10T13:41:04;3.05;;;0.73;;
76903;SDS011;65865;51.698;-0.292;2023-05-10T13:43:30;2.20;;;0.68;;
76903;SDS011;65865;51.698;-0.292;2023-05-10T13:45:56;2.55;;;0.63;;
76903;SDS011;65865;51.698;-0.292;2023-05-10T13:48:22;2.72;;;0.90;;
76903;SDS011;65865;51.698;-0.292;2023-05-10T13:50:48;3.75;;;1.02;;
76903;SDS011;65865;51.698;-0.292;2023-05-10T13:53:14;1.65;;;0.70;;
76903;SDS011;65865;51.698;-0.292;2023-05-10T13:55:40;2.38;;;0.60;;
76903;SDS011;65865;51.698;-0.292;2023-05-10T13:58:06;3.40;;;0.73;;
76903;SDS011;65865;51.698;-0.292;2023-05-10T14:00:32;3.53;;;0.80;;
76903;SDS011;65865;51.698;-0.292;2023-05-10T14:02:58;2.85;;;0.80;;
76903;SDS011;65865;51.698;-0.292;2023-05-10T14:05:25;3.53;;;0.82;;
76903;SDS011;65865;51.698;-0.292;2023-05-10T14:07:51;2.83;;;0.68;;
76903;SDS011;65865;51.698;-0.292;2023-05-10T14:10:19;2.67;;;0.82;;
76903;SDS011;65865;51.698;-0.292;2023-05-10T14:12:53;1.80;;;0.68;;
76903;SDS011;65865;51.698;-0.292;2023-05-10T14:15:19;2.55;;;0.70;;
76903;SDS011;65865;51.698;-0.292;2023-05-10T14:17:45;1.80;;;0.60;;
76903;SDS011;65865;51.698;-0.292;2023-05-10T14:20:11;1.35;;;0.70;;
76903;SDS011;65865;51.698;-0.292;2023-05-10T14:22:37;3.20;;;0.75;;
76903;SDS011;65865;51.698;-0.292;2023-05-10T14:25:03;1.50;;;0.60;;
76903;SDS011;65865;51.698;-0.292;2023-05-10T14:27:29;2.72;;;0.60;;
76903;SDS011;65865;51.698;-0.292;2023-05-10T14:29:55;1.58;;;0.77;;
76903;SDS011;65865;51.698;-0.292;2023-05-10T14:32:21;3.17;;;0.70;;
76903;SDS011;65865;51.698;-0.292;2023-05-10T14:34:50;1.38;;;0.43;;
76903;SDS011;65865;51.698;-0.292;2023-05-10T14:37:16;2.55;;;0.75;;
76903;SDS011;65865;51.698;-0.292;2023-05-10T14:39:42;2.28;;;0.60;;
76903;SDS011;65865;51.698;-0.292;2023-05-10T14:42:10;5.32;;;0.95;;
76903;SDS011;65865;51.698;-0.292;2023-05-10T14:44:36;4.72;;;0.90;;
76903;SDS011;65865;51.698;-0.292;2023-05-10T14:47:02;2.53;;;0.63;;
76903;SDS011;65865;51.698;-0.292;2023-05-10T14:49:28;2.42;;;0.88;;
76903;SDS011;65865;51.698;-0.292;2023-05-10T14:51:54;4.28;;;0.93;;
76903;SDS011;65865;51.698;-0.292;2023-05-10T14:54:21;3.17;;;0.82;;
76903;SDS011;65865;51.698;-0.292;2023-05-10T14:56:48;3.40;;;0.80;;
76903;SDS011;65865;51.698;-0.292;2023-05-10T14:59:17;3.90;;;1.00;;
76903;SDS011;65865;51.698;-0.292;2023-05-10T15:01:48;2.35;;;0.80;;
76903;SDS011;65865;51.698;-0.292;2023-05-10T15:04:14;3.42;;;1.00;;
76903;SDS011;65865;51.698;-0.292;2023-05-10T15:06:41;5.18;;;1.00;;
76903;SDS011;65865;51.698;-0.292;2023-05-10T15:09:08;4.68;;;1.00;;
76903;SDS011;65865;51.698;-0.292;2023-05-10T15:11:34;3.85;;;0.80;;
76903;SDS011;65865;51.698;-0.292;2023-05-10T15:14:00;2.88;;;0.73;;
76903;SDS011;65865;51.698;-0.292;2023-05-10T15:16:26;3.70;;;1.25;;
76903;SDS011;65865;51.698;-0.292;2023-05-10T15:18:54;3.50;;;1.00;;